Time;durP1;ratioP1;P1;durP2;ratioP2;P2;SDS_P1;SDS_P2;PMS_P1;PMS_P2;Temp;Humidity;BMP_temperature;BMP_pressure;BME280_temperature;BME280_humidity;BME280_pressure;Samples;Min_cycle;Max_cycle;Signal;HPM_P1;HPM_P2
2023/07/15 00:01:21;;;;;;;8.10;6.17;;;;;;;15.16;100.00;96628.59;5074524;28;20648;-64
2023/07/15 00:03:49;;;;;;;6.43;6.03;;;;;;;15.10;100.00;96620.66;5074461;28;20215;-64
2023/07/15 00:06:17;;;;;;;6.23;5.73;;;;;;;15.16;100.00;96630.41;5074124;28;20229;-63
2023/07/15 00:08:46;;;;;;;6.50;6.10;;;;;;;15.16;100.00;96625.09;5078248;28;20226;-66
2023/07/15 00:11:16;;;;;;;6.10;5.70;;;;;;;15.16;100.00;96625.91;5075733;28;20302;-65
2023/07/15 00:13:44;;;;;;;6.70;6.20;;;;;;;15.13;100.00;96621.00;5075072;28;20713;-66
2023/07/15 00:16:11;;;;;;;6.97;6.33;;;;;;;15.10;100.00;96631.31;5074304;28;20753;-64
2023/07/15 00:18:41;;;;;;;6.37;5.87;;;;;;;15.10;100.00;96632.13;5071152;28;20230;-65
2023/07/15 00:21:16;;;;;;;6.90;6.33;;;;;;;15.05;100.00;96630.16;5075369;28;20294;-62
2023/07/15 00:23:46;;;;;;;6.70;6.30;;;;;;;15.07;100.00;96631.78;5072424;28;20370;-63
2023/07/15 00:26:13;;;;;;;6.00;5.60;;;;;;;15.04;100.00;96622.38;5072134;28;20658;-64
2023/07/15 00:28:41;;;;;;;6.67;6.03;;;;;;;14.95;100.00;96621.84;5071885;28;20772;-64
2023/07/15 00:31:13;;;;;;;5.93;5.57;;;;;;;14.96;100.00;96620.03;5076554;28;20210;-65
2023/07/15 00:33:41;;;;;;;5.63;5.27;;;;;;;14.84;100.00;96618.13;5074112;28;20202;-64
2023/07/15 00:36:10;;;;;;;6.70;6.10;;;;;;;14.91;100.00;96636.69;5071369;28;20230;-64
2023/07/15 00:38:38;;;;;;;6.27;5.87;;;;;;;14.83;100.00;96629.00;5075957;28;20210;-63
2023/07/15 00:41:11;;;;;;;5.87;5.53;;;;;;;14.86;100.00;96634.72;5077758;28;20316;-63
2023/07/15 00:43:55;;;;;;;7.20;6.73;;;;;;;14.82;100.00;96641.53;5071444;28;20206;-63
2023/07/15 00:46:37;;;;;;;6.37;5.97;;;;;;;14.80;100.00;96632.94;5074797;28;20305;-63
2023/07/15 00:49:06;;;;;;;7.47;6.57;;;;;;;14.80;100.00;96634.78;5072500;28;20204;-62
2023/07/15 00:51:36;;;;;;;6.47;5.97;;;;;;;14.76;100.00;96642.41;5075859;28;20202;-63
2023/07/15 00:54:04;;;;;;;6.87;6.17;;;;;;;14.75;100.00;96630.94;5076178;28;20294;-63
2023/07/15 00:56:34;;;;;;;9.40;6.47;;;;;;;14.72;100.00;96642.06;5077250;28;21073;-63
2023/07/15 00:59:02;;;;;;;6.63;6.13;;;;;;;14.67;100.00;96649.88;5072052;28;20646;-64
2023/07/15 01:01:31;;;;;;;6.37;5.97;;;;;;;14.56;100.00;96635.44;5066638;28;20216;-64
2023/07/15 01:03:59;;;;;;;7.00;6.50;;;;;;;14.62;100.00;96653.22;5075011;28;20204;-62
2023/07/15 01:06:27;;;;;;;7.10;6.60;;;;;;;14.57;100.00;96654.91;5074298;28;20242;-64
2023/07/15 01:08:55;;;;;;;6.40;5.90;;;;;;;14.47;100.00;96653.59;5073834;28;20301;-63
2023/07/15 01:11:22;;;;;;;6.20;5.80;;;;;;;14.48;100.00;96641.88;5079133;28;20317;-63
2023/07/15 01:13:50;;;;;;;6.20;5.80;;;;;;;14.47;100.00;96642.91;5074307;28;20726;-63
2023/07/15 01:16:17;;;;;;;6.13;5.67;;;;;;;14.44;100.00;96645.22;5072345;28;20304;-64
2023/07/15 01:18:46;;;;;;;5.73;5.33;;;;;;;14.41;100.00;96635.81;5074338;28;20216;-63
2023/07/15 01:21:15;;;;;;;6.10;5.70;;;;;;;14.38;100.00;96641.59;5075851;28;20772;-63
2023/07/15 01:23:44;;;;;;;6.07;5.67;;;;;;;14.39;100.00;96634.41;5072255;28;20210;-64
2023/07/15 01:26:11;;;;;;;6.07;5.67;;;;;;;14.37;100.00;96629.31;5078173;28;20843;-63
2023/07/15 01:28:39;;;;;;;6.20;5.43;;;;;;;14.32;100.00;96631.81;5075830;28;20275;-64
2023/07/15 01:31:07;;;;;;;6.47;6.07;;;;;;;14.31;100.00;96625.66;5081580;28;20210;-62
2023/07/15 01:33:35;;;;;;;6.90;6.30;;;;;;;14.36;100.00;96627.69;5077901;28;20202;-63
2023/07/15 01:36:04;;;;;;;6.40;5.80;;;;;;;14.33;100.00;96638.78;5078293;28;20284;-63
2023/07/15 01:38:33;;;;;;;6.73;6.10;;;;;;;14.29;100.00;96632.28;5080106;28;20209;-64
2023/07/15 01:41:02;;;;;;;7.13;6.53;;;;;;;14.27;100.00;96632.47;5074831;28;20288;-64
2023/07/15 01:43:29;;;;;;;7.00;6.50;;;;;;;14.28;100.00;96641.31;5072378;28;20289;-63
2023/07/15 01:45:57;;;;;;;7.80;7.20;;;;;;;14.25;100.00;96631.88;5079607;28;20303;-63
2023/07/15 01:48:26;;;;;;;7.20;6.50;;;;;;;14.24;100.00;96629.47;5076262;28;20217;-63
2023/07/15 01:50:53;;;;;;;7.23;6.63;;;;;;;14.22;100.00;96634.19;5072352;28;20241;-62
2023/07/15 01:53:21;;;;;;;7.37;6.77;;;;;;;14.17;100.00;96625.00;5077150;28;20225;-64
2023/07/15 01:55:49;;;;;;;7.27;6.77;;;;;;;14.12;100.00;96630.16;5078842;28;20230;-62
2023/07/15 01:58:18;;;;;;;6.93;6.43;;;;;;;14.08;100.00;96636.97;5074753;28;20292;-65
2023/07/15 02:00:45;;;;;;;7.27;6.67;;;;;;;14.05;100.00;96632.09;5073228;28;20233;-62
2023/07/15 02:03:13;;;;;;;7.00;6.40;;;;;;;14.05;100.00;96637.41;5078524;28;20203;-66
2023/07/15 02:05:41;;;;;;;6.87;6.33;;;;;;;14.06;100.00;96641.72;5077376;28;20281;-61
2023/07/15 02:08:09;;;;;;;7.10;6.60;;;;;;;14.06;100.00;96644.38;5077005;28;20215;-62
2023/07/15 02:10:36;;;;;;;7.37;6.87;;;;;;;13.91;100.00;96606.63;5072703;28;20201;-65
2023/07/15 02:13:04;;;;;;;7.23;6.53;;;;;;;14.05;100.00;96637.41;5076840;28;20293;-65
2023/07/15 02:15:33;;;;;;;7.90;7.20;;;;;;;14.04;100.00;96630.47;5069774;28;20284;-63
2023/07/15 02:18:01;;;;;;;7.13;6.60;;;;;;;13.99;100.00;96630.31;5069324;28;20301;-63
2023/07/15 02:20:28;;;;;;;7.40;6.73;;;;;;;14.00;100.00;96629.28;5079688;28;20305;-64
2023/07/15 02:22:56;;;;;;;7.50;6.93;;;;;;;13.98;100.00;96629.47;5076482;28;20623;-63
2023/07/15 02:25:24;;;;;;;7.73;7.23;;;;;;;13.98;100.00;96628.69;5074106;28;20719;-63
2023/07/15 02:27:51;;;;;;;7.30;6.80;;;;;;;13.99;100.00;96631.09;5073848;28;20298;-60
2023/07/15 02:30:20;;;;;;;7.73;6.93;;;;;;;13.96;100.00;96628.09;5077422;28;20208;-64
2023/07/15 02:32:49;;;;;;;8.30;7.50;;;;;;;13.91;100.00;96631.38;5075905;28;20206;-62
2023/07/15 02:35:16;;;;;;;7.30;6.80;;;;;;;13.92;100.00;96622.38;5071435;28;20229;-63
2023/07/15 02:37:44;;;;;;;8.37;7.63;;;;;;;13.98;100.00;96626.81;5074978;28;20227;-63
2023/07/15 02:40:12;;;;;;;6.73;6.33;;;;;;;13.96;100.00;96633.41;5074433;28;20666;-63
2023/07/15 02:42:40;;;;;;;7.93;7.27;;;;;;;13.91;100.00;96634.06;5073912;28;20210;-65
2023/07/15 02:45:10;;;;;;;8.03;7.37;;;;;;;13.85;100.00;96634.94;5079025;28;20249;-62
2023/07/15 02:47:39;;;;;;;7.60;7.10;;;;;;;13.85;100.00;96648.25;5076733;28;20301;-66
2023/07/15 02:50:10;;;;;;;7.60;6.80;;;;;;;13.80;100.00;96640.91;5075532;28;20198;-63
2023/07/15 02:52:41;;;;;;;6.87;6.37;;;;;;;13.82;100.00;96630.03;5073842;28;20747;-63
2023/07/15 02:55:09;;;;;;;7.40;6.90;;;;;;;13.78;100.00;96640.31;5078381;28;20616;-63
2023/07/15 02:57:36;;;;;;;7.00;6.50;;;;;;;13.77;100.00;96636.00;5076219;28;20312;-64
2023/07/15 03:00:11;;;;;;;6.83;6.33;;;;;;;13.74;100.00;96636.44;5071171;28;20206;-65
2023/07/15 03:02:39;;;;;;;7.27;6.73;;;;;;;13.73;100.00;96627.66;5074824;28;20221;-65
2023/07/15 03:05:09;;;;;;;6.53;6.07;;;;;;;13.67;100.00;96633.88;5075791;28;20733;-65
2023/07/15 03:07:39;;;;;;;7.30;6.60;;;;;;;13.70;100.00;96635.25;5072850;28;20199;-64
2023/07/15 03:10:07;;;;;;;8.07;7.47;;;;;;;13.73;100.00;96634.81;5074245;28;20206;-65
2023/07/15 03:12:35;;;;;;;7.43;6.87;;;;;;;13.73;100.00;96633.00;5073564;28;20639;-64
2023/07/15 03:15:02;;;;;;;7.20;6.70;;;;;;;13.74;100.00;96641.78;5074793;28;20275;-62
2023/07/15 03:17:35;;;;;;;7.20;6.80;;;;;;;13.77;100.00;96641.34;5073743;28;20309;-64
2023/07/15 03:20:07;;;;;;;6.67;6.13;;;;;;;13.80;100.00;96635.56;5073331;28;20206;-63
2023/07/15 03:22:38;;;;;;;7.70;7.20;;;;;;;13.81;100.00;96636.41;5073301;28;20900;-63
2023/07/15 03:25:07;;;;;;;7.50;6.97;;;;;;;13.83;100.00;96637.84;5069939;28;20962;-63
2023/07/15 03:27:34;;;;;;;7.83;7.03;;;;;;;13.84;100.00;96631.47;5079251;28;20202;-63
2023/07/15 03:30:02;;;;;;;8.40;6.77;;;;;;;13.83;100.00;96621.03;5076871;28;20209;-65
2023/07/15 03:32:30;;;;;;;7.50;6.90;;;;;;;13.88;100.00;96627.34;5076120;28;20233;-63
2023/07/15 03:34:58;;;;;;;7.40;6.80;;;;;;;13.87;100.00;96624.88;5071940;28;21006;-62
2023/07/15 03:37:25;;;;;;;7.23;6.73;;;;;;;13.89;100.00;96617.47;5077179;28;20762;-63
2023/07/15 03:39:54;;;;;;;6.83;6.43;;;;;;;13.91;100.00;96619.94;5074300;28;20742;-64
2023/07/15 03:42:22;;;;;;;7.60;7.07;;;;;;;13.90;100.00;96624.44;5071442;28;20562;-64
2023/07/15 03:44:50;;;;;;;7.87;7.10;;;;;;;13.96;100.00;96630.75;5070173;28;20233;-63
2023/07/15 03:47:17;;;;;;;6.90;6.40;;;;;;;13.99;100.00;96635.63;5078869;28;20281;-63
2023/07/15 03:49:45;;;;;;;6.67;6.07;;;;;;;14.02;100.00;96637.84;5073253;28;20195;-64
2023/07/15 03:52:13;;;;;;;6.80;6.40;;;;;;;14.02;100.00;96628.03;5074287;28;20284;-64
2023/07/15 03:54:42;;;;;;;7.87;7.13;;;;;;;14.04;100.00;96638.44;5074965;28;20219;-64
2023/07/15 03:57:12;;;;;;;6.70;6.30;;;;;;;14.08;100.00;96644.97;5075846;28;20356;-65
2023/07/15 03:59:39;;;;;;;7.20;6.53;;;;;;;14.13;100.00;96639.78;5070727;28;20202;-66
2023/07/15 04:02:07;;;;;;;7.07;6.57;;;;;;;14.18;100.00;96631.16;5069892;28;20730;-64
2023/07/15 04:04:35;;;;;;;7.13;6.53;;;;;;;14.24;100.00;96630.25;5073778;28;20230;-63
2023/07/15 04:07:02;;;;;;;6.83;6.37;;;;;;;14.32;100.00;96637.16;5071047;28;20533;-64
2023/07/15 04:09:30;;;;;;;7.57;6.97;;;;;;;14.36;100.00;96627.69;5073347;28;21081;-63
2023/07/15 04:11:58;;;;;;;6.60;6.20;;;;;;;14.44;100.00;96619.38;5074044;28;20465;-63
2023/07/15 04:14:27;;;;;;;7.80;7.10;;;;;;;14.53;100.00;96621.75;5074064;28;20195;-67
2023/07/15 04:16:55;;;;;;;7.70;7.07;;;;;;;14.63;100.00;96622.06;5070647;28;20894;-64
2023/07/15 04:19:22;;;;;;;7.57;6.97;;;;;;;14.74;100.00;96623.16;5071873;28;21609;-63
2023/07/15 04:21:50;;;;;;;7.20;6.70;;;;;;;14.88;100.00;96621.13;5073509;28;20399;-63
2023/07/15 04:24:17;;;;;;;8.07;7.37;;;;;;;14.95;100.00;96629.88;5072090;28;20244;-64
2023/07/15 04:26:45;;;;;;;7.60;7.10;;;;;;;15.09;100.00;96627.03;5074311;28;20210;-66
2023/07/15 04:29:13;;;;;;;7.73;7.13;;;;;;;15.22;100.00;96618.84;5074288;28;20733;-65
2023/07/15 04:31:42;;;;;;;6.90;6.50;;;;;;;15.31;100.00;96622.78;5074891;28;20625;-67
2023/07/15 04:34:10;;;;;;;6.37;5.97;;;;;;;15.45;100.00;96623.41;5066418;28;20705;-66
2023/07/15 04:36:38;;;;;;;6.60;6.03;;;;;;;15.59;100.00;96623.22;5074777;28;20751;-66
2023/07/15 04:39:06;;;;;;;7.03;6.40;;;;;;;15.70;100.00;96618.91;5070834;28;20226;-66
2023/07/15 04:41:34;;;;;;;6.97;6.57;;;;;;;15.82;100.00;96617.09;5073030;28;20231;-64
2023/07/15 04:44:03;;;;;;;6.73;6.20;;;;;;;15.96;100.00;96617.72;5071266;28;20301;-64
2023/07/15 04:46:30;;;;;;;6.90;6.40;;;;;;;16.11;100.00;96625.25;5076661;28;20286;-64
2023/07/15 04:49:00;;;;;;;7.63;7.13;;;;;;;16.25;100.00;96615.13;5073079;28;20552;-64
2023/07/15 04:51:27;;;;;;;6.50;6.10;;;;;;;16.40;100.00;96617.31;5077741;28;20198;-64
2023/07/15 04:53:56;;;;;;;6.93;6.43;;;;;;;16.57;100.00;96624.63;5073422;28;20205;-64
2023/07/15 04:56:24;;;;;;;7.57;5.93;;;;;;;16.73;100.00;96625.75;5071931;28;20732;-65
2023/07/15 04:58:52;;;;;;;6.67;6.03;;;;;;;16.91;100.00;96627.44;5073738;28;20226;-65
2023/07/15 05:01:20;;;;;;;6.40;5.80;;;;;;;17.04;100.00;96637.03;5078431;28;20333;-65
2023/07/15 05:03:47;;;;;;;5.77;5.30;;;;;;;17.17;100.00;96639.44;5078470;28;21129;-65
2023/07/15 05:06:16;;;;;;;5.67;5.23;;;;;;;17.37;100.00;96643.53;5077965;28;20252;-64
2023/07/15 05:08:47;;;;;;;6.13;5.30;;;;;;;17.47;100.00;96641.06;5078199;28;20285;-65
2023/07/15 05:11:15;;;;;;;8.77;6.00;;;;;;;17.59;100.00;96640.97;5084320;28;20288;-66
2023/07/15 05:13:44;;;;;;;5.90;5.47;;;;;;;17.90;100.00;96638.78;5077507;28;20252;-66
2023/07/15 05:16:11;;;;;;;5.83;5.43;;;;;;;18.09;100.00;96633.19;5080618;28;20638;-65
2023/07/15 05:18:39;;;;;;;5.23;4.90;;;;;;;18.29;100.00;96639.91;5077818;28;20267;-65
2023/07/15 05:21:06;;;;;;;5.43;5.00;;;;;;;18.48;100.00;96643.94;5073958;28;20849;-65
2023/07/15 05:23:35;;;;;;;5.60;5.03;;;;;;;18.35;100.00;96639.72;5071973;28;20235;-64
2023/07/15 05:26:04;;;;;;;5.53;5.00;;;;;;;18.62;100.00;96644.38;5077978;28;20312;-62
2023/07/15 05:28:32;;;;;;;5.13;4.73;;;;;;;18.75;100.00;96648.56;5078213;28;20202;-63
2023/07/15 05:31:01;;;;;;;5.30;4.67;;;;;;;18.86;100.00;96659.41;5079642;28;20655;-65
2023/07/15 05:33:29;;;;;;;5.33;4.83;;;;;;;18.87;100.00;96655.66;5077157;28;20730;-63
2023/07/15 05:35:57;;;;;;;5.57;5.17;;;;;;;18.90;100.00;96649.78;5075364;28;20238;-66
2023/07/15 05:38:26;;;;;;;4.90;4.50;;;;;;;19.01;100.00;96650.75;5076022;28;20313;-64
2023/07/15 05:40:56;;;;;;;5.23;4.83;;;;;;;19.15;100.00;96651.97;5075251;28;20281;-64
2023/07/15 05:43:23;;;;;;;5.10;4.70;;;;;;;19.26;100.00;96660.97;5079941;28;20692;-64
2023/07/15 05:45:51;;;;;;;5.33;4.90;;;;;;;19.41;100.00;96662.16;5077452;28;20317;-64
2023/07/15 05:48:18;;;;;;;5.03;4.63;;;;;;;19.53;100.00;96652.09;5078041;28;21303;-65
2023/07/15 05:50:46;;;;;;;5.60;4.93;;;;;;;19.63;100.00;96667.47;5075775;28;20217;-67
2023/07/15 05:53:14;;;;;;;4.87;4.47;;;;;;;19.80;100.00;96668.19;5076034;28;20819;-64
2023/07/15 05:55:42;;;;;;;4.27;4.07;;;;;;;19.80;100.00;96657.44;5080887;28;20232;-66
2023/07/15 05:58:11;;;;;;;6.63;5.27;;;;;;;19.96;100.00;96660.25;5077210;28;20230;-64
2023/07/15 06:00:38;;;;;;;5.00;4.60;;;;;;;20.13;100.00;96662.78;5080626;28;20229;-65
2023/07/15 06:03:06;;;;;;;4.97;4.57;;;;;;;20.42;100.00;96662.44;5079973;28;20203;-66
2023/07/15 06:05:34;;;;;;;8.23;5.17;;;;;;;20.36;100.00;96658.91;5075699;28;20226;-65
2023/07/15 06:08:02;;;;;;;5.20;4.53;;;;;;;20.41;100.00;96660.81;5081858;28;20198;-65
2023/07/15 06:10:30;;;;;;;4.90;4.60;;;;;;;20.52;100.00;96664.41;5081229;28;20211;-64
2023/07/15 06:12:57;;;;;;;6.83;6.33;;;;;;;20.65;100.00;96661.22;5079613;28;20287;-65
2023/07/15 06:15:26;;;;;;;7.67;7.07;;;;;;;20.65;100.00;96661.22;5079154;28;20343;-65
2023/07/15 06:17:55;;;;;;;4.67;4.20;;;;;;;20.70;100.00;96662.31;5082127;28;20226;-66
2023/07/15 06:20:23;;;;;;;4.33;4.13;;;;;;;20.81;100.00;96670.22;5073696;28;20204;-66
2023/07/15 06:22:51;;;;;;;6.27;4.40;;;;;;;21.01;100.00;96665.97;5076582;28;20210;-66
2023/07/15 06:25:19;;;;;;;5.00;4.70;;;;;;;20.99;100.00;96664.63;5075547;28;20254;-66
2023/07/15 06:27:46;;;;;;;4.97;4.53;;;;;;;21.02;100.00;96670.28;5077416;28;20253;-66
2023/07/15 06:30:14;;;;;;;5.00;4.50;;;;;;;21.30;100.00;96665.50;5077333;28;20226;-65
2023/07/15 06:32:43;;;;;;;4.73;4.37;;;;;;;21.30;100.00;96667.41;5076282;28;20677;-66
2023/07/15 06:35:10;;;;;;;8.07;4.20;;;;;;;21.48;100.00;96656.13;5071909;28;20226;-65
2023/07/15 06:37:39;;;;;;;4.93;4.47;;;;;;;21.42;100.00;96653.69;5078724;28;20243;-65
2023/07/15 06:40:08;;;;;;;4.63;4.10;;;;;;;21.63;100.00;96658.03;5070924;28;20253;-66
2023/07/15 06:42:35;;;;;;;4.27;3.87;;;;;;;21.92;100.00;96660.22;5079708;28;20229;-65
2023/07/15 06:45:03;;;;;;;6.27;3.73;;;;;;;21.85;100.00;96659.69;5077024;28;20268;-65
2023/07/15 06:47:31;;;;;;;3.80;3.53;;;;;;;22.10;100.00;96655.34;5078300;28;20619;-66
2023/07/15 06:50:00;;;;;;;4.10;3.80;;;;;;;22.16;100.00;96651.59;5072416;28;20208;-64
2023/07/15 06:52:27;;;;;;;3.90;3.57;;;;;;;22.47;100.00;96653.44;5074746;28;20298;-65
2023/07/15 06:54:55;;;;;;;5.83;3.77;;;;;;;22.52;100.00;96651.50;5079976;28;20233;-65
2023/07/15 06:57:23;;;;;;;4.83;4.47;;;;;;;22.58;100.00;96651.50;5071723;28;20206;-65
2023/07/15 06:59:50;;;;;;;5.40;4.00;;;;;;;22.61;100.00;96646.34;5074722;28;20230;-64
2023/07/15 07:02:18;;;;;;;4.00;3.80;;;;;;;22.76;100.00;96644.69;5070428;28;20673;-63
2023/07/15 07:04:46;;;;;;;3.87;3.60;;;;;;;22.95;100.00;96653.78;5076623;28;20234;-64
2023/07/15 07:07:15;;;;;;;7.73;4.27;;;;;;;23.08;100.00;96651.56;5075241;28;20297;-65
2023/07/15 07:09:42;;;;;;;4.30;4.00;;;;;;;23.23;100.00;96653.38;5073977;28;20205;-64
2023/07/15 07:12:10;;;;;;;4.90;4.03;;;;;;;23.31;100.00;96649.31;5075371;28;20234;-65
2023/07/15 07:14:37;;;;;;;4.20;4.00;;;;;;;23.52;100.00;96648.09;5077530;28;20261;-63
2023/07/15 07:17:05;;;;;;;3.83;3.63;;;;;;;23.50;100.00;96642.16;5072425;28;20233;-64
2023/07/15 07:19:33;;;;;;;4.07;3.77;;;;;;;23.44;100.00;96642.47;5068943;28;20222;-64
2023/07/15 07:22:00;;;;;;;3.97;3.63;;;;;;;23.65;100.00;96640.44;5075319;28;20226;-65
2023/07/15 07:24:29;;;;;;;3.70;3.50;;;;;;;23.75;100.00;96626.81;5071079;28;20297;-63
2023/07/15 07:26:57;;;;;;;4.00;3.80;;;;;;;23.90;100.00;96630.50;5074576;28;20285;-63
2023/07/15 07:29:25;;;;;;;3.90;3.60;;;;;;;23.92;100.00;96625.63;5071842;28;20683;-64
2023/07/15 07:31:52;;;;;;;4.53;4.13;;;;;;;23.95;100.00;96635.88;5075287;28;20202;-63
2023/07/15 07:34:20;;;;;;;4.60;4.20;;;;;;;23.91;100.00;96632.91;5069557;28;20229;-65
2023/07/15 07:36:48;;;;;;;3.73;3.30;;;;;;;24.03;100.00;96632.56;5080212;28;20232;-63
2023/07/15 07:39:15;;;;;;;3.70;3.50;;;;;;;24.16;100.00;96624.88;5070524;28;20644;-65
2023/07/15 07:41:44;;;;;;;4.13;3.83;;;;;;;23.98;100.00;96625.28;5076146;28;20198;-64
2023/07/15 07:44:12;;;;;;;4.40;4.00;;;;;;;24.12;100.00;96625.44;5073524;28;20195;-66
2023/07/15 07:46:39;;;;;;;3.50;3.30;;;;;;;24.28;100.00;96615.28;5076713;28;20258;-66
2023/07/15 07:49:07;;;;;;;4.03;3.73;;;;;;;24.27;100.00;96616.38;5076420;28;20223;-64
2023/07/15 07:51:35;;;;;;;4.17;3.87;;;;;;;24.41;100.00;96612.97;5070371;28;20202;-64
2023/07/15 07:54:02;;;;;;;3.80;3.60;;;;;;;24.55;100.00;96613.91;5077021;28;20324;-66
2023/07/15 07:56:30;;;;;;;4.10;3.70;;;;;;;24.55;100.00;96615.78;5073932;28;20756;-65
2023/07/15 07:59:01;;;;;;;4.13;3.83;;;;;;;24.65;98.93;96617.56;5072112;28;20625;-64
2023/07/15 08:01:30;;;;;;;4.70;4.27;;;;;;;24.63;97.36;96617.06;5070345;28;20277;-64
2023/07/15 08:03:59;;;;;;;4.87;3.37;;;;;;;24.76;98.91;96616.38;5072609;28;20208;-65
2023/07/15 08:06:27;;;;;;;3.63;3.43;;;;;;;24.79;96.38;96615.00;5073784;28;20313;-67
2023/07/15 08:08:55;;;;;;;4.10;3.80;;;;;;;24.60;98.62;96607.59;5075976;28;20294;-63
2023/07/15 08:11:22;;;;;;;3.83;3.43;;;;;;;24.88;96.74;96613.25;5083417;28;20205;-63
2023/07/15 08:13:50;;;;;;;3.60;3.40;;;;;;;25.00;97.32;96623.66;5073122;28;20213;-63
2023/07/15 08:16:43;;;;;;;4.20;3.90;;;;;;;24.98;94.26;96617.75;5077593;28;20245;-65
2023/07/15 08:19:11;;;;;;;3.90;3.57;;;;;;;25.05;94.34;96617.38;5064263;28;20206;-64
2023/07/15 08:21:38;;;;;;;3.83;3.60;;;;;;;25.14;94.89;96615.63;5075949;28;20681;-63
2023/07/15 08:24:06;;;;;;;4.13;3.57;;;;;;;25.23;93.10;96610.34;5073808;28;20695;-65
2023/07/15 08:26:34;;;;;;;3.83;3.60;;;;;;;25.31;89.96;96622.44;5074097;28;20218;-65
2023/07/15 08:29:03;;;;;;;3.97;3.70;;;;;;;25.37;90.45;96621.25;5078033;28;20198;-63
2023/07/15 08:31:30;;;;;;;3.80;3.57;;;;;;;25.39;91.79;96617.16;5072431;28;20681;-63
2023/07/15 08:33:59;;;;;;;3.90;3.53;;;;;;;25.52;90.02;96618.34;5072598;28;20202;-63
2023/07/15 08:36:27;;;;;;;4.17;3.87;;;;;;;25.66;92.10;96620.31;5073596;28;20963;-67
2023/07/15 08:38:55;;;;;;;4.30;3.90;;;;;;;25.66;91.66;96621.13;5078337;28;20764;-65
2023/07/15 08:41:24;;;;;;;3.93;3.63;;;;;;;25.76;89.68;96622.88;5073728;28;20225;-66
2023/07/15 08:43:51;;;;;;;3.43;3.23;;;;;;;25.80;89.90;96610.31;5075765;28;20206;-65
2023/07/15 08:46:26;;;;;;;4.70;3.90;;;;;;;25.94;89.36;96613.03;5070081;28;20222;-66
2023/07/15 08:48:54;;;;;;;4.83;4.00;;;;;;;26.12;85.78;96613.28;5074934;28;20835;-66
2023/07/15 08:51:25;;;;;;;3.63;3.43;;;;;;;26.18;84.26;96609.41;5070056;28;20199;-66
2023/07/15 08:53:54;;;;;;;4.03;3.30;;;;;;;26.21;83.96;96606.09;5076183;28;20668;-65
2023/07/15 08:56:23;;;;;;;4.70;4.30;;;;;;;26.36;82.93;96598.78;5071661;28;20436;-66
2023/07/15 08:58:52;;;;;;;3.80;3.50;;;;;;;26.49;83.85;96594.44;5074761;28;20302;-65
2023/07/15 09:01:19;;;;;;;3.50;3.20;;;;;;;26.47;79.63;96566.78;5075936;28;20222;-66
2023/07/15 09:03:47;;;;;;;3.40;3.20;;;;;;;26.61;77.85;96594.75;5075200;28;20229;-64
2023/07/15 09:06:15;;;;;;;4.00;3.70;;;;;;;26.61;77.06;96597.47;5072260;28;20218;-64
2023/07/15 09:08:50;;;;;;;3.87;3.67;;;;;;;26.69;79.87;96585.06;5074086;28;20322;-64
2023/07/15 09:11:18;;;;;;;3.87;3.40;;;;;;;26.93;76.96;96590.31;5076855;28;20209;-64
2023/07/15 09:13:46;;;;;;;3.60;3.30;;;;;;;26.96;76.16;96600.56;5072163;28;20206;-64
2023/07/15 09:16:14;;;;;;;3.70;3.50;;;;;;;27.01;76.92;96591.47;5076778;28;20233;-64
2023/07/15 09:18:42;;;;;;;4.23;3.80;;;;;;;27.06;76.33;96594.09;5072436;28;20215;-65
2023/07/15 09:21:11;;;;;;;3.80;3.47;;;;;;;27.25;73.81;96596.66;5073712;28;20269;-64
2023/07/15 09:23:42;;;;;;;3.90;3.53;;;;;;;27.24;75.27;96595.03;5074017;28;20207;-65
2023/07/15 09:26:11;;;;;;;3.83;3.53;;;;;;;27.30;72.93;96593.00;5077481;28;20226;-66
2023/07/15 09:28:40;;;;;;;3.50;3.20;;;;;;;27.32;74.72;96598.16;5072335;28;20927;-65
2023/07/15 09:31:08;;;;;;;6.97;6.27;;;;;;;27.16;69.18;96565.88;5071609;28;20244;-64
2023/07/15 09:33:39;;;;;;;3.37;3.07;;;;;;;27.50;72.65;96580.06;5072363;28;20685;-65
2023/07/15 09:36:08;;;;;;;3.53;3.23;;;;;;;27.56;72.07;96582.34;5071836;28;20223;-65
2023/07/15 09:38:37;;;;;;;3.90;3.50;;;;;;;27.68;70.36;96584.53;5074159;28;20288;-64
2023/07/15 09:41:08;;;;;;;3.70;3.50;;;;;;;27.76;68.83;96582.16;5072382;28;20274;-65
2023/07/15 09:43:48;;;;;;;3.70;3.40;;;;;;;27.73;68.31;96568.06;5070775;28;20206;-65
2023/07/15 09:46:17;;;;;;;3.33;3.13;;;;;;;27.83;67.09;96579.78;5073173;28;20266;-64
2023/07/15 09:48:45;;;;;;;4.00;3.80;;;;;;;27.91;64.05;96567.34;5080912;28;20237;-66
2023/07/15 09:51:15;;;;;;;4.57;3.60;;;;;;;28.00;60.24;96576.38;5074716;28;20258;-66
2023/07/15 09:53:45;;;;;;;7.30;3.43;;;;;;;28.02;60.06;96569.50;5076684;28;20218;-67
2023/07/15 09:56:13;;;;;;;3.10;2.93;;;;;;;28.23;62.77;96563.56;5079188;28;20444;-65
2023/07/15 09:58:44;;;;;;;2.90;2.70;;;;;;;28.28;58.24;96559.88;5075881;28;20203;-65
2023/07/15 10:01:19;;;;;;;3.00;2.80;;;;;;;28.25;59.97;96564.03;5079488;28;20198;-64
2023/07/15 10:03:53;;;;;;;4.13;3.07;;;;;;;28.31;62.96;96560.03;5078243;28;20654;-67
2023/07/15 10:06:22;;;;;;;3.90;2.43;;;;;;;28.41;60.96;96561.69;5076654;28;20317;-65
2023/07/15 10:08:49;;;;;;;2.93;2.73;;;;;;;28.36;58.70;96552.84;5077583;28;20333;-64
2023/07/15 10:11:17;;;;;;;2.77;2.67;;;;;;;28.58;57.02;96560.13;5078844;28;20230;-65
2023/07/15 10:13:45;;;;;;;2.67;2.53;;;;;;;28.50;56.37;96534.44;5075518;28;20274;-65
2023/07/15 10:16:14;;;;;;;2.73;2.53;;;;;;;28.68;54.59;96550.84;5078038;28;20314;-66
2023/07/15 10:18:41;;;;;;;2.20;2.10;;;;;;;28.78;52.46;96547.84;5074985;28;20204;-66
2023/07/15 10:21:10;;;;;;;3.70;2.57;;;;;;;28.88;56.05;96539.34;5079330;28;20281;-64
2023/07/15 10:23:37;;;;;;;3.20;2.83;;;;;;;28.97;58.15;96541.28;5071631;28;20297;-65
2023/07/15 10:26:06;;;;;;;3.13;2.77;;;;;;;28.97;56.29;96536.63;5081994;28;20224;-65
2023/07/15 10:28:35;;;;;;;3.43;3.23;;;;;;;28.91;55.49;96523.47;5074073;28;20234;-65
2023/07/15 10:31:07;;;;;;;1.70;1.60;;;;;;;29.13;54.22;96547.88;5079846;28;20327;-65
2023/07/15 10:33:37;;;;;;;3.10;2.70;;;;;;;29.21;54.60;96546.28;5075961;28;20693;-66
2023/07/15 10:36:06;;;;;;;2.70;2.50;;;;;;;29.20;53.55;96541.13;5075439;28;20354;-67
2023/07/15 10:38:34;;;;;;;2.83;2.70;;;;;;;29.22;55.80;96536.16;5075635;28;20202;-65
2023/07/15 10:41:03;;;;;;;2.67;2.57;;;;;;;29.40;51.60;96531.50;5076284;28;20229;-67
2023/07/15 10:43:39;;;;;;;2.10;2.00;;;;;;;29.54;52.44;96520.41;5078529;28;20695;-68
2023/07/15 10:46:08;;;;;;;2.43;2.33;;;;;;;29.61;52.52;96526.16;5077150;28;20229;-66
2023/07/15 10:48:37;;;;;;;2.20;2.10;;;;;;;29.57;50.37;96525.22;5078350;28;20675;-67
2023/07/15 10:51:07;;;;;;;2.63;2.43;;;;;;;29.60;49.39;96519.13;5074202;28;20317;-66
2023/07/15 10:53:35;;;;;;;2.47;2.37;;;;;;;29.66;48.81;96517.03;5076191;28;20226;-66
2023/07/15 10:56:04;;;;;;;2.57;2.47;;;;;;;29.68;49.38;96521.00;5077506;28;20741;-65
2023/07/15 10:58:34;;;;;;;2.63;2.40;;;;;;;29.71;48.39;96520.34;5075981;28;20236;-65
2023/07/15 11:01:03;;;;;;;2.43;2.23;;;;;;;29.71;50.07;96523.09;5078144;28;20202;-67
2023/07/15 11:03:32;;;;;;;2.50;2.30;;;;;;;29.75;49.59;96501.41;5075634;28;20294;-67
2023/07/15 11:06:02;;;;;;;4.37;3.60;;;;;;;29.85;48.46;96503.00;5068994;28;20253;-65
2023/07/15 11:08:30;;;;;;;3.83;3.40;;;;;;;29.96;48.01;96497.97;5076714;28;20670;-68
2023/07/15 11:10:58;;;;;;;2.53;2.33;;;;;;;29.98;49.63;96501.19;5075401;28;20230;-64
2023/07/15 11:13:26;;;;;;;2.20;2.10;;;;;;;30.05;46.54;96506.97;5077965;28;20293;-65
2023/07/15 11:15:54;;;;;;;3.13;2.93;;;;;;;30.05;46.14;96496.03;5080129;28;20265;-66
2023/07/15 11:18:23;;;;;;;3.10;2.90;;;;;;;30.16;46.17;96497.25;5078021;28;20229;-66
2023/07/15 11:20:53;;;;;;;3.50;3.30;;;;;;;30.22;47.48;96494.34;5076164;28;20256;-66
2023/07/15 11:23:22;;;;;;;2.70;2.60;;;;;;;30.27;49.13;96484.03;5077070;28;20297;-63
2023/07/15 11:25:50;;;;;;;2.90;2.70;;;;;;;30.46;47.72;96483.59;5077000;28;20224;-68
2023/07/15 11:28:18;;;;;;;2.50;2.40;;;;;;;30.62;49.13;96477.56;5077311;28;20658;-66
2023/07/15 11:30:46;;;;;;;8.17;3.53;;;;;;;30.58;46.17;96469.22;5076308;28;20206;-64
2023/07/15 11:33:14;;;;;;;2.73;2.63;;;;;;;30.66;47.41;96474.97;5080259;28;20204;-64